Time;durP1;ratioP1;P1;durP2;ratioP2;P2;SDS_P1;SDS_P2;PMS_P1;PMS_P2;Temp;Humidity;BMP_temperature;BMP_pressure;BME280_temperature;BME280_humidity;BME280_pressure;Samples;Min_cycle;Max_cycle;Signal;HPM_P1;HPM_P2
2021/06/23 00:01:06;;;;;;;16.00;10.73;;;;;;;;;;5011219;28;20030;-75
2021/06/23 00:03:32;;;;;;;14.98;10.25;;;;;;;;;;5012559;28;20021;-77
2021/06/23 00:05:57;;;;;;;16.85;10.25;;;;;;;;;;5012587;28;20037;-78
2021/06/23 00:08:23;;;;;;;17.75;10.15;;;;;;;;;;5011306;28;20041;-78
2021/06/23 00:10:50;;;;;;;17.13;10.77;;;;;;;;;;5012551;28;20022;-78
2021/06/23 00:13:16;;;;;;;16.10;10.63;;;;;;;;;;5011116;28;20034;-77
2021/06/23 00:15:42;;;;;;;16.73;10.35;;;;;;;;;;5012373;28;20481;-77
2021/06/23 00:18:08;;;;;;;12.85;9.80;;;;;;;;;;5011105;28;20069;-78
2021/06/23 00:20:34;;;;;;;14.32;10.93;;;;;;;;;;5012563;28;20038;-78
2021/06/23 00:23:00;;;;;;;19.13;11.18;;;;;;;;;;5011114;28;20044;-79
2021/06/23 00:25:25;;;;;;;17.33;11.00;;;;;;;;;;5010773;28;20037;-75
2021/06/23 00:27:51;;;;;;;18.55;11.93;;;;;;;;;;5011386;28;20030;-77
2021/06/23 00:30:17;;;;;;;14.98;10.77;;;;;;;;;;5012949;28;20073;-77
2021/06/23 00:32:44;;;;;;;16.38;9.70;;;;;;;;;;5011627;28;20037;-77
2021/06/23 00:35:10;;;;;;;13.15;9.77;;;;;;;;;;5014969;28;20052;-77
2021/06/23 00:37:37;;;;;;;14.50;10.25;;;;;;;;;;5012956;28;20470;-77
2021/06/23 00:40:04;;;;;;;17.52;10.70;;;;;;;;;;5011615;28;20116;-78
2021/06/23 00:42:30;;;;;;;15.55;10.70;;;;;;;;;;5011998;28;20029;-78
2021/06/23 00:44:57;;;;;;;16.02;10.43;;;;;;;;;;5011746;28;20093;-78
2021/06/23 00:47:26;;;;;;;14.32;10.27;;;;;;;;;;5011925;28;20030;-78
2021/06/23 00:49:52;;;;;;;18.50;10.95;;;;;;;;;;5010479;28;20502;-77
2021/06/23 00:52:18;;;;;;;14.50;11.02;;;;;;;;;;5012075;28;20060;-78
2021/06/23 00:54:48;;;;;;;18.17;11.50;;;;;;;;;;5011492;28;20486;-78
2021/06/23 00:57:14;;;;;;;16.20;9.77;;;;;;;;;;5010504;28;20398;-77
2021/06/23 00:59:40;;;;;;;13.65;9.38;;;;;;;;;;5010429;28;20478;-78
2021/06/23 01:02:06;;;;;;;12.65;9.52;;;;;;;;;;5011793;28;20076;-77
2021/06/23 01:04:32;;;;;;;17.77;10.55;;;;;;;;;;5010460;28;20029;-77
2021/06/23 01:06:57;;;;;;;14.52;10.48;;;;;;;;;;5010673;28;20135;-77
2021/06/23 01:09:24;;;;;;;11.82;9.70;;;;;;;;;;5012150;28;20036;-78
2021/06/23 01:12:19;;;;;;;12.60;9.80;;;;;;;;;;5009988;28;20034;-79
2021/06/23 01:14:47;;;;;;;14.82;9.93;;;;;;;;;;5009920;28;20030;-78
2021/06/23 01:17:13;;;;;;;16.17;11.40;;;;;;;;;;5010214;28;20436;-77
2021/06/23 01:19:44;;;;;;;14.77;10.25;;;;;;;;;;5011288;28;20537;-77
2021/06/23 01:22:16;;;;;;;13.15;9.75;;;;;;;;;;5011597;28;20037;-77
2021/06/23 01:24:43;;;;;;;17.60;10.70;;;;;;;;;;5011194;28;20021;-76
2021/06/23 01:27:09;;;;;;;14.50;10.55;;;;;;;;;;5026532;28;20034;-75
2021/06/23 01:29:36;;;;;;;21.40;11.77;;;;;;;;;;5011345;28;20363;-76
2021/06/23 01:32:02;;;;;;;15.57;10.15;;;;;;;;;;5011308;28;20435;-75
2021/06/23 01:34:27;;;;;;;15.35;9.82;;;;;;;;;;5011168;28;20120;-76
2021/06/23 01:36:53;;;;;;;15.30;9.98;;;;;;;;;;5009543;28;20066;-78
2021/06/23 01:39:19;;;;;;;20.33;9.98;;;;;;;;;;5011173;28;20460;-77
2021/06/23 01:41:45;;;;;;;13.45;9.68;;;;;;;;;;5010896;28;20033;-77
2021/06/23 01:44:10;;;;;;;13.30;9.82;;;;;;;;;;5026257;28;20030;-77
2021/06/23 01:46:37;;;;;;;14.45;10.20;;;;;;;;;;5010998;28;20030;-76
2021/06/23 01:49:04;;;;;;;15.68;10.57;;;;;;;;;;5010983;28;20087;-76
2021/06/23 01:51:29;;;;;;;14.32;10.32;;;;;;;;;;5009504;28;20037;-76
2021/06/23 01:53:55;;;;;;;14.00;9.90;;;;;;;;;;5010217;28;20046;-76
2021/06/23 01:56:20;;;;;;;21.13;11.43;;;;;;;;;;5009374;28;20048;-77
2021/06/23 01:58:46;;;;;;;17.85;11.18;;;;;;;;;;5009169;28;20041;-77
2021/06/23 02:01:48;;;;;;;15.32;9.38;;;;;;;;;;5010948;28;20025;-77
2021/06/23 02:04:26;;;;;;;14.70;10.30;;;;;;;;;;5010730;28;20038;-77
2021/06/23 02:07:14;;;;;;;14.40;9.50;;;;;;;;;;5010634;28;20040;-76
2021/06/23 02:09:58;;;;;;;15.77;10.68;;;;;;;;;;5008951;28;20038;-78
2021/06/23 02:12:24;;;;;;;15.80;10.63;;;;;;;;;;5008979;28;20029;-77
2021/06/23 02:14:56;;;;;;;15.10;11.05;;;;;;;;;;5010032;28;20041;-77
2021/06/23 02:17:27;;;;;;;27.08;12.38;;;;;;;;;;5010750;28;20038;-77
2021/06/23 02:19:55;;;;;;;15.18;10.90;;;;;;;;;;5010274;28;20097;-78
2021/06/23 02:22:23;;;;;;;14.48;10.27;;;;;;;;;;5009039;28;20031;-79
2021/06/23 02:24:52;;;;;;;15.90;10.07;;;;;;;;;;5008641;28;20025;-78
2021/06/23 02:27:18;;;;;;;17.10;10.75;;;;;;;;;;5010188;28;20026;-78
2021/06/23 02:29:45;;;;;;;14.07;11.02;;;;;;;;;;5010145;28;20052;-77
2021/06/23 02:32:13;;;;;;;15.60;9.88;;;;;;;;;;5008720;28;20281;-76
2021/06/23 02:34:41;;;;;;;16.27;10.57;;;;;;;;;;5008760;28;20502;-78
2021/06/23 02:37:10;;;;;;;15.05;11.15;;;;;;;;;;5008568;28;20109;-77
2021/06/23 02:39:36;;;;;;;18.13;10.95;;;;;;;;;;5008531;28;20022;-77
2021/06/23 02:42:03;;;;;;;19.23;12.15;;;;;;;;;;5009855;28;20101;-78
2021/06/23 02:44:28;;;;;;;15.18;10.77;;;;;;;;;;5010165;28;20025;-76
2021/06/23 02:46:54;;;;;;;24.05;11.63;;;;;;;;;;5008108;28;20032;-78
2021/06/23 02:49:20;;;;;;;16.63;11.75;;;;;;;;;;5009875;28;20033;-77
2021/06/23 02:51:45;;;;;;;18.42;11.00;;;;;;;;;;4991583;28;20058;-77
2021/06/23 02:54:11;;;;;;;15.60;11.20;;;;;;;;;;5008211;28;20050;-78
2021/06/23 02:56:37;;;;;;;16.67;13.00;;;;;;;;;;5008320;28;20022;-78
2021/06/23 02:59:04;;;;;;;18.65;12.95;;;;;;;;;;5009464;28;20138;-78
2021/06/23 03:01:30;;;;;;;21.27;11.90;;;;;;;;;;5009720;28;20033;-78
2021/06/23 03:03:57;;;;;;;16.25;11.85;;;;;;;;;;5008125;28;20041;-78
2021/06/23 03:06:23;;;;;;;18.52;12.93;;;;;;;;;;5008377;28;20030;-78
2021/06/23 03:08:50;;;;;;;18.70;12.23;;;;;;;;;;5009444;28;20037;-78
2021/06/23 03:11:16;;;;;;;19.77;11.63;;;;;;;;;;5008000;28;20083;-76
2021/06/23 03:13:41;;;;;;;16.63;12.48;;;;;;;;;;5008173;28;20098;-78
2021/06/23 03:16:07;;;;;;;21.75;11.82;;;;;;;;;;5009425;28;20470;-77
2021/06/23 03:18:33;;;;;;;22.52;11.98;;;;;;;;;;5008495;28;20030;-77
2021/06/23 03:21:00;;;;;;;18.33;11.57;;;;;;;;;;5009279;28;20045;-77
2021/06/23 03:23:26;;;;;;;19.52;12.90;;;;;;;;;;5009405;28;20103;-78
2021/06/23 03:25:51;;;;;;;23.00;12.77;;;;;;;;;;5009110;28;20060;-76
2021/06/23 03:28:17;;;;;;;19.10;12.38;;;;;;;;;;5009175;28;20481;-78
2021/06/23 03:30:43;;;;;;;19.75;13.25;;;;;;;;;;5007861;28;20044;-76
2021/06/23 03:33:08;;;;;;;17.42;12.50;;;;;;;;;;5009181;28;20029;-77
2021/06/23 03:35:34;;;;;;;22.42;13.85;;;;;;;;;;5009486;28;20030;-77
2021/06/23 03:38:00;;;;;;;20.55;12.50;;;;;;;;;;5008030;28;20036;-77
2021/06/23 03:40:25;;;;;;;25.20;13.60;;;;;;;;;;5007738;28;20449;-77
2021/06/23 03:42:51;;;;;;;20.65;13.00;;;;;;;;;;5009086;28;20021;-77
2021/06/23 03:45:19;;;;;;;21.48;14.18;;;;;;;;;;5008009;28;20026;-77
2021/06/23 03:47:45;;;;;;;20.80;14.05;;;;;;;;;;5007936;28;20116;-75
2021/06/23 03:50:12;;;;;;;18.50;12.77;;;;;;;;;;5007889;28;20030;-78
2021/06/23 03:52:38;;;;;;;19.42;13.43;;;;;;;;;;5007714;28;20038;-76
2021/06/23 03:55:10;;;;;;;25.10;14.70;;;;;;;;;;5007700;28;20026;-76
2021/06/23 03:57:35;;;;;;;24.80;14.45;;;;;;;;;;5009360;28;20076;-77
2021/06/23 04:00:01;;;;;;;21.67;13.52;;;;;;;;;;5008415;28;20033;-76
2021/06/23 04:02:27;;;;;;;20.60;14.85;;;;;;;;;;4991732;28;20034;-77
2021/06/23 04:04:52;;;;;;;23.50;13.18;;;;;;;;;;5010782;28;20438;-76
2021/06/23 04:07:18;;;;;;;21.02;14.07;;;;;;;;;;5012593;28;20129;-77
2021/06/23 04:09:43;;;;;;;22.33;13.65;;;;;;;;;;5011610;28;20118;-78
2021/06/23 04:12:10;;;;;;;21.15;14.00;;;;;;;;;;5012322;28;20029;-76
2021/06/23 04:14:36;;;;;;;23.02;13.63;;;;;;;;;;5012668;28;20036;-76
2021/06/23 04:17:02;;;;;;;21.98;14.07;;;;;;;;;;5010842;28;20025;-76
2021/06/23 04:19:28;;;;;;;29.40;15.82;;;;;;;;;;5011006;28;20497;-77
2021/06/23 04:21:53;;;;;;;20.58;13.63;;;;;;;;;;5012536;28;20541;-76
2021/06/23 04:24:19;;;;;;;22.98;13.85;;;;;;;;;;5011263;28;20109;-77
2021/06/23 04:26:45;;;;;;;25.90;14.82;;;;;;;;;;5010951;28;20021;-77
2021/06/23 04:29:11;;;;;;;31.73;15.30;;;;;;;;;;5010598;28;20034;-77
2021/06/23 04:31:37;;;;;;;23.52;14.68;;;;;;;;;;5011074;28;20038;-76
2021/06/23 04:34:02;;;;;;;23.92;15.15;;;;;;;;;;5012286;28;20037;-76
2021/06/23 04:36:28;;;;;;;25.45;14.05;;;;;;;;;;5012315;28;20029;-76
2021/06/23 04:38:54;;;;;;;28.48;14.75;;;;;;;;;;5010556;28;20413;-76
2021/06/23 04:41:19;;;;;;;27.80;16.38;;;;;;;;;;5012236;28;20074;-76
2021/06/23 04:43:45;;;;;;;22.98;13.82;;;;;;;;;;5010827;28;20021;-76
2021/06/23 04:46:11;;;;;;;26.08;14.65;;;;;;;;;;5011735;28;20333;-75
2021/06/23 04:48:36;;;;;;;22.52;14.48;;;;;;;;;;5011858;28;20116;-76
2021/06/23 04:51:02;;;;;;;26.25;15.27;;;;;;;;;;5010670;28;20526;-76
2021/06/23 04:53:28;;;;;;;24.17;15.20;;;;;;;;;;5011454;28;20058;-76
2021/06/23 04:55:54;;;;;;;22.73;14.57;;;;;;;;;;5010007;28;20423;-76
2021/06/23 04:58:21;;;;;;;23.95;13.90;;;;;;;;;;5011932;28;20120;-76
2021/06/23 05:00:47;;;;;;;24.45;15.10;;;;;;;;;;5010340;28;20459;-76
2021/06/23 05:03:13;;;;;;;26.95;14.50;;;;;;;;;;5010176;28;20401;-77
2021/06/23 05:05:41;;;;;;;26.75;16.00;;;;;;;;;;5010293;28;20040;-76
2021/06/23 05:08:07;;;;;;;28.13;15.05;;;;;;;;;;5011617;28;20057;-76
2021/06/23 05:10:34;;;;;;;27.55;15.98;;;;;;;;;;5011625;28;20058;-76
2021/06/23 05:13:00;;;;;;;25.30;14.23;;;;;;;;;;5009880;28;20133;-76
2021/06/23 05:15:26;;;;;;;25.45;15.07;;;;;;;;;;5009963;28;20117;-76
2021/06/23 05:17:51;;;;;;;25.15;15.35;;;;;;;;;;5011125;28;20026;-76
2021/06/23 05:20:17;;;;;;;21.77;14.77;;;;;;;;;;5011583;28;20440;-76
2021/06/23 05:22:46;;;;;;;31.10;17.23;;;;;;;;;;5010356;28;20513;-76
2021/06/23 05:25:14;;;;;;;23.10;15.43;;;;;;;;;;5010193;28;20051;-76
2021/06/23 05:27:40;;;;;;;23.55;15.05;;;;;;;;;;5012475;28;20042;-77
2021/06/23 05:30:06;;;;;;;25.58;16.58;;;;;;;;;;5010558;28;20396;-77
2021/06/23 05:32:32;;;;;;;28.52;15.90;;;;;;;;;;5011837;28;20029;-76
2021/06/23 05:34:58;;;;;;;22.52;15.18;;;;;;;;;;5009759;28;20048;-76
2021/06/23 05:37:23;;;;;;;27.65;16.55;;;;;;;;;;5010807;28;20037;-76
2021/06/23 05:39:49;;;;;;;25.63;15.82;;;;;;;;;;5007843;28;20116;-77
2021/06/23 05:42:14;;;;;;;37.60;18.10;;;;;;;;;;5028904;28;20543;-77
2021/06/23 05:44:40;;;;;;;33.30;15.70;;;;;;;;;;5011620;28;20032;-76
2021/06/23 05:47:05;;;;;;;27.90;16.77;;;;;;;;;;4998862;28;20034;-76
2021/06/23 05:49:31;;;;;;;24.75;16.10;;;;;;;;;;5009675;28;20465;-78
2021/06/23 05:51:56;;;;;;;35.38;16.52;;;;;;;;;;5008389;28;20033;-76
2021/06/23 05:54:23;;;;;;;28.63;17.27;;;;;;;;;;5002549;28;20697;-77
2021/06/23 05:56:48;;;;;;;26.98;16.42;;;;;;;;;;5008153;28;20091;-77
2021/06/23 05:59:14;;;;;;;33.28;18.08;;;;;;;;;;5009500;28;20515;-76
2021/06/23 06:01:39;;;;;;;30.20;17.60;;;;;;;;;;5023044;28;20042;-77
2021/06/23 06:04:04;;;;;;;43.80;22.60;;;;;;;;;;5037580;28;20501;-79
2021/06/23 06:06:30;;;;;;;35.45;19.33;;;;;;;;;;5012342;28;20037;-79
2021/06/23 06:08:56;;;;;;;36.40;18.90;;;;;;;;;;5010862;28;20057;-77
2021/06/23 06:11:21;;;;;;;31.88;17.92;;;;;;;;;;5024588;28;20034;-78
2021/06/23 06:13:47;;;;;;;26.27;17.60;;;;;;;;;;5010037;28;20467;-77
2021/06/23 06:16:12;;;;;;;29.63;17.35;;;;;;;;;;5016055;28;20041;-78
2021/06/23 06:18:38;;;;;;;34.85;22.52;;;;;;;;;;5007958;28;20038;-77
2021/06/23 06:21:04;;;;;;;36.53;18.55;;;;;;;;;;5019369;28;20120;-77
2021/06/23 06:23:29;;;;;;;31.95;18.95;;;;;;;;;;5003114;28;20457;-77
2021/06/23 06:25:55;;;;;;;28.10;17.05;;;;;;;;;;5001429;28;20033;-76
2021/06/23 06:28:21;;;;;;;26.58;16.98;;;;;;;;;;5001403;28;20053;-77
2021/06/23 06:30:47;;;;;;;28.90;17.63;;;;;;;;;;5034512;28;20065;-77
2021/06/23 06:33:12;;;;;;;32.38;18.70;;;;;;;;;;5008253;28;20467;-77
2021/06/23 06:35:38;;;;;;;33.35;17.92;;;;;;;;;;5006050;28;20034;-76
2021/06/23 06:38:04;;;;;;;37.50;17.33;;;;;;;;;;5014932;28;20038;-77
2021/06/23 06:40:30;;;;;;;40.28;18.83;;;;;;;;;;5007993;28;20153;-77
2021/06/23 06:42:55;;;;;;;33.17;18.42;;;;;;;;;;5005555;28;20077;-77
2021/06/23 06:45:22;;;;;;;25.83;16.42;;;;;;;;;;4999904;28;20038;-78
2021/06/23 06:47:48;;;;;;;29.17;17.30;;;;;;;;;;5032367;28;20100;-77
2021/06/23 06:50:14;;;;;;;39.42;19.25;;;;;;;;;;5001595;28;20437;-76
2021/06/23 06:52:39;;;;;;;56.60;19.10;;;;;;;;;;5007644;28;20373;-78
2021/06/23 06:55:08;;;;;;;28.95;16.80;;;;;;;;;;4984564;28;20522;-76
2021/06/23 06:57:34;;;;;;;28.75;17.23;;;;;;;;;;5009115;28;20035;-77
2021/06/23 06:59:59;;;;;;;29.00;16.90;;;;;;;;;;4982653;28;20041;-76
2021/06/23 07:02:25;;;;;;;26.92;16.05;;;;;;;;;;4990125;28;20483;-78
2021/06/23 07:04:50;;;;;;;23.88;15.50;;;;;;;;;;4980973;28;20034;-75
2021/06/23 07:07:16;;;;;;;28.95;16.40;;;;;;;;;;4973528;28;20037;-76
2021/06/23 07:09:42;;;;;;;30.85;17.52;;;;;;;;;;4988370;28;20476;-76
2021/06/23 07:12:09;;;;;;;27.50;16.13;;;;;;;;;;4988537;28;20030;-76
2021/06/23 07:14:35;;;;;;;25.48;15.57;;;;;;;;;;5005965;28;20085;-76
2021/06/23 07:17:01;;;;;;;25.70;15.88;;;;;;;;;;4959663;28;20330;-77
2021/06/23 07:19:27;;;;;;;25.63;15.82;;;;;;;;;;4981078;28;20377;-77
2021/06/23 07:21:52;;;;;;;26.67;15.10;;;;;;;;;;4981582;28;20588;-76
2021/06/23 07:24:19;;;;;;;24.92;14.38;;;;;;;;;;4972407;28;20073;-77
2021/06/23 07:26:52;;;;;;;26.90;15.38;;;;;;;;;;4951663;28;20483;-77
2021/06/23 07:29:21;;;;;;;21.20;13.82;;;;;;;;;;4969539;28;20042;-78
2021/06/23 07:32:09;;;;;;;24.42;16.17;;;;;;;;;;4984821;28;20038;-76
2021/06/23 07:37:11;;;;;;;21.42;13.85;;;;;;;;;;4984374;28;20117;-79
2021/06/23 07:39:38;;;;;;;22.30;14.25;;;;;;;;;;4980532;28;20033;-78
2021/06/23 07:42:06;;;;;;;27.02;14.65;;;;;;;;;;4982194;28;20774;-77
2021/06/23 07:44:35;;;;;;;30.45;15.90;;;;;;;;;;4986893;28;20037;-76
2021/06/23 07:47:06;;;;;;;23.77;14.23;;;;;;;;;;4987970;28;20454;-75
2021/06/23 07:49:36;;;;;;;25.70;16.48;;;;;;;;;;5018987;28;20504;-76
2021/06/23 07:55:00;;;;;;;28.13;16.55;;;;;;;;;;4982737;28;20047;-76
2021/06/23 08:08:45;;;;;;;24.33;15.27;;;;;;;;;;4983845;28;20379;-76
2021/06/23 08:11:16;;;;;;;21.80;14.32;;;;;;;;;;4980486;28;20384;-75
2021/06/23 08:13:43;;;;;;;21.92;14.93;;;;;;;;;;4982633;28;20045;-76
2021/06/23 08:16:10;;;;;;;21.33;13.63;;;;;;;;;;4983488;28;20060;-76
2021/06/23 08:18:37;;;;;;;22.17;14.27;;;;;;;;;;4983766;28;20036;-76
2021/06/23 08:21:03;;;;;;;23.40;14.32;;;;;;;;;;4980968;28;20034;-77
2021/06/23 08:23:29;;;;;;;24.27;14.10;;;;;;;;;;4982524;28;20034;-77
2021/06/23 08:25:55;;;;;;;26.70;15.55;;;;;;;;;;4982383;28;20030;-78
2021/06/23 08:28:23;;;;;;;21.02;12.55;;;;;;;;;;4999274;28;20041;-78
2021/06/23 08:30:49;;;;;;;26.10;15.23;;;;;;;;;;4981810;28;20032;-79
2021/06/23 08:33:14;;;;;;;24.50;15.40;;;;;;;;;;4989897;28;20114;-77
2021/06/23 08:35:40;;;;;;;38.05;15.60;;;;;;;;;;4979219;28;20039;-80
2021/06/23 08:38:06;;;;;;;22.15;14.45;;;;;;;;;;4985553;28;20025;-80
2021/06/23 08:40:31;;;;;;;25.35;15.52;;;;;;;;;;4976063;28;20134;-78
2021/06/23 08:42:58;;;;;;;25.75;15.32;;;;;;;;;;4983539;28;20077;-80
2021/06/23 08:45:24;;;;;;;23.00;14.85;;;;;;;;;;4985680;28;20038;-79
2021/06/23 08:47:50;;;;;;;23.90;15.43;;;;;;;;;;4987192;28;20038;-77
2021/06/23 08:50:21;;;;;;;25.00;15.27;;;;;;;;;;4981503;28;20041;-78
2021/06/23 08:52:48;;;;;;;25.88;14.15;;;;;;;;;;4985897;28;20046;-80
2021/06/23 08:55:19;;;;;;;24.67;15.57;;;;;;;;;;4983164;28;20111;-79
2021/06/23 08:57:46;;;;;;;23.42;13.75;;;;;;;;;;4986471;28;20054;-77
2021/06/23 09:00:12;;;;;;;25.13;15.07;;;;;;;;;;4984576;28;20066;-78
2021/06/23 09:02:38;;;;;;;28.10;15.23;;;;;;;;;;4984588;28;20026;-78
2021/06/23 09:05:07;;;;;;;32.92;25.73;;;;;;;;;;5000923;28;20029;-79
2021/06/23 09:07:38;;;;;;;20.30;15.10;;;;;;;;;;4989553;28;20090;-79
2021/06/23 09:10:27;;;;;;;25.05;14.05;;;;;;;;;;4998060;28;20397;-78
2021/06/23 09:13:08;;;;;;;22.05;14.20;;;;;;;;;;4992610;28;20385;-78
2021/06/23 09:15:51;;;;;;;25.55;14.48;;;;;;;;;;4998496;28;20042;-78
2021/06/23 09:18:20;;;;;;;22.50;13.20;;;;;;;;;;4983225;28;20092;-78
2021/06/23 09:20:50;;;;;;;28.52;15.52;;;;;;;;;;4982211;28;20445;-78
2021/06/23 09:23:16;;;;;;;20.80;12.57;;;;;;;;;;4985383;28;20049;-79
2021/06/23 09:25:45;;;;;;;21.33;12.65;;;;;;;;;;4995098;28;20480;-79
2021/06/23 09:28:18;;;;;;;21.38;13.18;;;;;;;;;;4989826;28;20027;-79
2021/06/23 09:30:47;;;;;;;20.83;12.80;;;;;;;;;;4990101;28;20061;-80
2021/06/23 09:33:25;;;;;;;21.05;12.50;;;;;;;;;;4990618;28;20671;-77
2021/06/23 09:35:58;;;;;;;19.40;12.10;;;;;;;;;;4993877;28;20592;-79
2021/06/23 09:38:33;;;;;;;19.70;12.23;;;;;;;;;;5000189;28;20427;-78
2021/06/23 09:41:00;;;;;;;21.95;11.48;;;;;;;;;;4991014;28;20041;-78
2021/06/23 09:43:43;;;;;;;20.35;11.52;;;;;;;;;;4980901;28;20505;-77
2021/06/23 09:46:18;;;;;;;19.08;9.98;;;;;;;;;;5019959;28;20041;-79
2021/06/23 09:48:45;;;;;;;55.33;15.55;;;;;;;;;;4983685;28;20042;-79
2021/06/23 09:51:20;;;;;;;20.38;11.27;;;;;;;;;;4986771;28;20493;-78
2021/06/23 09:53:47;;;;;;;21.30;11.13;;;;;;;;;;5016208;28;20078;-77
2021/06/23 09:56:30;;;;;;;16.77;11.40;;;;;;;;;;4983970;28;20397;-76
2021/06/23 09:58:58;;;;;;;17.70;11.23;;;;;;;;;;4983917;28;20030;-79
2021/06/23 10:01:25;;;;;;;23.85;14.57;;;;;;;;;;4982871;28;20050;-78
2021/06/23 10:03:52;;;;;;;23.35;11.48;;;;;;;;;;4982610;28;20057;-79
2021/06/23 10:06:29;;;;;;;24.98;15.52;;;;;;;;;;5001772;28;20026;-77
2021/06/23 10:09:24;;;;;;;22.08;13.70;;;;;;;;;;4990297;28;20029;-79
2021/06/23 10:11:52;;;;;;;19.60;12.20;;;;;;;;;;4989205;28;20710;-77
2021/06/23 10:14:18;;;;;;;21.50;11.88;;;;;;;;;;4989143;28;20034;-78
2021/06/23 10:16:46;;;;;;;16.55;11.25;;;;;;;;;;4992828;28;20038;-79
2021/06/23 10:19:11;;;;;;;15.50;10.23;;;;;;;;;;4992604;28;20151;-79
2021/06/23 10:21:38;;;;;;;14.68;11.25;;;;;;;;;;4987429;28;20117;-80
2021/06/23 10:24:08;;;;;;;14.02;10.00;;;;;;;;;;4984447;28;20038;-78
2021/06/23 10:26:37;;;;;;;15.50;10.50;;;;;;;;;;4980761;28;20053;-78
2021/06/23 10:29:06;;;;;;;19.92;11.05;;;;;;;;;;4984715;28;20044;-78
2021/06/23 10:31:33;;;;;;;16.25;11.23;;;;;;;;;;4983335;28;20034;-78
2021/06/23 10:34:00;;;;;;;17.58;11.93;;;;;;;;;;4990782;28;20070;-78
2021/06/23 10:36:25;;;;;;;21.02;12.30;;;;;;;;;;4982448;28;20038;-82
2021/06/23 10:38:52;;;;;;;19.42;12.85;;;;;;;;;;4979890;28;20053;-79
2021/06/23 10:41:18;;;;;;;16.35;11.23;;;;;;;;;;4981136;28;20030;-80
2021/06/23 10:44:14;;;;;;;19.42;12.02;;;;;;;;;;4982238;28;20502;-78
2021/06/23 10:46:40;;;;;;;24.20;11.98;;;;;;;;;;4994345;28;20547;-80
2021/06/23 10:49:05;;;;;;;24.15;12.32;;;;;;;;;;4980045;28;20030;-78
2021/06/23 10:51:31;;;;;;;17.65;12.85;;;;;;;;;;4979865;28;20044;-78
2021/06/23 10:53:57;;;;;;;20.95;11.98;;;;;;;;;;4974643;28;20049;-77
2021/06/23 10:56:44;;;;;;;21.40;12.02;;;;;;;;;;4979588;28;20053;-78
2021/06/23 10:59:33;;;;;;;34.35;13.57;;;;;;;;;;4983420;28;20030;-78
2021/06/23 11:02:16;;;;;;;24.65;13.73;;;;;;;;;;4983012;28;20041;-77
2021/06/23 11:04:57;;;;;;;23.63;13.27;;;;;;;;;;4984917;28;20027;-78
2021/06/23 11:07:52;;;;;;;21.53;13.40;;;;;;;;;;4982336;28;20033;-78
2021/06/23 11:10:34;;;;;;;21.13;12.55;;;;;;;;;;4980320;28;20679;-77
2021/06/23 11:13:03;;;;;;;20.20;12.68;;;;;;;;;;4984717;28;20456;-78
2021/06/23 11:15:32;;;;;;;21.65;13.50;;;;;;;;;;5018732;28;20497;-77
2021/06/23 11:18:24;;;;;;;15.70;11.48;;;;;;;;;;4985720;28;20034;-79
2021/06/23 11:21:18;;;;;;;17.58;11.95;;;;;;;;;;4986307;28;20050;-78
2021/06/23 11:24:02;;;;;;;22.60;12.25;;;;;;;;;;4986972;28;20028;-76
2021/06/23 11:26:27;;;;;;;18.85;12.35;;;;;;;;;;4985514;28;20341;-79
2021/06/23 11:28:57;;;;;;;23.17;12.90;;;;;;;;;;4984606;28;20031;-77
2021/06/23 11:31:43;;;;;;;19.83;11.93;;;;;;;;;;4979351;28;20026;-78
2021/06/23 11:34:10;;;;;;;20.58;11.85;;;;;;;;;;4983905;28;20066;-79
2021/06/23 11:36:36;;;;;;;20.52;12.38;;;;;;;;;;4985259;28;20037;-78
2021/06/23 11:39:04;;;;;;;20.23;12.30;;;;;;;;;;4985552;28;20498;-79
2021/06/23 11:41:30;;;;;;;17.98;12.63;;;;;;;;;;4986225;28;20112;-78
2021/06/23 11:43:55;;;;;;;18.50;12.65;;;;;;;;;;4985756;28;20031;-78
2021/06/23 11:46:21;;;;;;;19.20;12.35;;;;;;;;;;4983844;28;20034;-79
2021/06/23 11:48:46;;;;;;;21.23;13.68;;;;;;;;;;4986483;28;20105;-77
2021/06/23 11:51:12;;;;;;;16.17;12.73;;;;;;;;;;4984187;28;20061;-78
2021/06/23 11:53:39;;;;;;;25.35;14.48;;;;;;;;;;4983292;28;20046;-76
2021/06/23 11:56:06;;;;;;;26.65;16.65;;;;;;;;;;4983786;28;20043;-78
2021/06/23 11:58:32;;;;;;;20.92;16.02;;;;;;;;;;4987058;28;20034;-79
2021/06/23 12:00:57;;;;;;;24.38;16.75;;;;;;;;;;4985722;28;20726;-79
2021/06/23 12:03:23;;;;;;;26.65;17.67;;;;;;;;;;4984602;28;20085;-78
2021/06/23 12:05:49;;;;;;;27.27;17.90;;;;;;;;;;4982122;28;20037;-79
2021/06/23 12:08:16;;;;;;;24.60;17.35;;;;;;;;;;4984605;28;20026;-77
2021/06/23 12:10:42;;;;;;;25.92;17.58;;;;;;;;;;4986537;28;20037;-78
2021/06/23 12:13:09;;;;;;;21.58;17.42;;;;;;;;;;4969356;28;20464;-78
2021/06/23 12:15:37;;;;;;;24.15;17.50;;;;;;;;;;5000110;28;20041;-78
2021/06/23 12:18:05;;;;;;;28.38;16.65;;;;;;;;;;4986089;28;20050;-79
2021/06/23 12:20:33;;;;;;;24.90;17.88;;;;;;;;;;4985591;28;20308;-78
2021/06/23 12:23:00;;;;;;;26.02;18.20;;;;;;;;;;4983783;28;20058;-78
2021/06/23 12:25:32;;;;;;;27.25;16.75;;;;;;;;;;4982573;28;20383;-79
2021/06/23 12:27:58;;;;;;;32.28;18.83;;;;;;;;;;4982928;28;20121;-78
2021/06/23 12:30:28;;;;;;;25.25;17.75;;;;;;;;;;4984138;28;20019;-80
2021/06/23 12:32:58;;;;;;;23.45;15.48;;;;;;;;;;4982024;28;20019;-78
2021/06/23 12:35:26;;;;;;;26.48;16.45;;;;;;;;;;4982389;28;20072;-79
2021/06/23 12:37:51;;;;;;;22.92;16.13;;;;;;;;;;4955772;28;20082;-80
2021/06/23 12:40:17;;;;;;;21.55;16.35;;;;;;;;;;4963141;28;20059;-78
2021/06/23 12:42:43;;;;;;;22.08;16.30;;;;;;;;;;4965434;28;20097;-78
2021/06/23 12:45:09;;;;;;;26.83;16.48;;;;;;;;;;4980414;28;20029;-76
2021/06/23 12:47:35;;;;;;;27.35;17.10;;;;;;;;;;4962702;28;20185;-77
2021/06/23 12:50:01;;;;;;;22.30;15.65;;;;;;;;;;4966155;28;20148;-77
2021/06/23 12:52:26;;;;;;;24.38;16.17;;;;;;;;;;4959230;28;20801;-77
2021/06/23 12:54:52;;;;;;;25.23;16.13;;;;;;;;;;4995095;28;20412;-80
2021/06/23 12:57:17;;;;;;;20.67;15.48;;;;;;;;;;4961314;28;20356;-76
2021/06/23 12:59:44;;;;;;;20.88;14.85;;;;;;;;;;4960392;28;20584;-78
2021/06/23 13:02:09;;;;;;;20.60;14.10;;;;;;;;;;4996031;28;20104;-77
2021/06/23 13:04:37;;;;;;;17.30;13.50;;;;;;;;;;4961996;28;20065;-78
2021/06/23 13:07:03;;;;;;;17.63;13.38;;;;;;;;;;4962243;28;20042;-77
2021/06/23 13:09:28;;;;;;;17.15;12.02;;;;;;;;;;4979008;28;20030;-78
2021/06/23 13:11:54;;;;;;;18.73;13.57;;;;;;;;;;4963401;28;20034;-79
2021/06/23 13:14:19;;;;;;;17.85;11.10;;;;;;;;;;4963140;28;20412;-77
2021/06/23 13:16:46;;;;;;;17.08;12.57;;;;;;;;;;4964816;28;20065;-78
2021/06/23 13:19:11;;;;;;;16.02;12.65;;;;;;;;;;4962743;28;20093;-76
2021/06/23 13:21:37;;;;;;;14.85;12.63;;;;;;;;;;4965730;28;20117;-77
2021/06/23 13:24:03;;;;;;;19.73;12.40;;;;;;;;;;4964253;28;21187;-78
2021/06/23 13:26:28;;;;;;;18.92;13.38;;;;;;;;;;4974174;28;20770;-80
2021/06/23 13:28:54;;;;;;;19.73;12.68;;;;;;;;;;4962960;28;20034;-79
2021/06/23 13:31:21;;;;;;;19.20;13.23;;;;;;;;;;4964474;28;20467;-78
2021/06/23 13:33:46;;;;;;;16.90;12.65;;;;;;;;;;4953220;28;20085;-79
2021/06/23 13:36:12;;;;;;;19.77;13.70;;;;;;;;;;4959282;28;20379;-79
2021/06/23 13:38:37;;;;;;;21.65;13.50;;;;;;;;;;4961659;28;20050;-78
2021/06/23 13:41:03;;;;;;;23.98;15.63;;;;;;;;;;4963387;28;20038;-77
2021/06/23 13:43:30;;;;;;;17.70;12.52;;;;;;;;;;4964584;28;20039;-77
2021/06/23 13:45:59;;;;;;;26.08;16.17;;;;;;;;;;4960691;28;20031;-79
2021/06/23 13:48:25;;;;;;;16.33;11.65;;;;;;;;;;4962149;28;20030;-79
2021/06/23 13:50:50;;;;;;;18.40;12.30;;;;;;;;;;4960088;28;20379;-78
2021/06/23 13:53:17;;;;;;;21.42;12.88;;;;;;;;;;4962165;28;20475;-77
2021/06/23 13:55:43;;;;;;;18.67;12.73;;;;;;;;;;4993268;28;20035;-77
2021/06/23 13:58:13;;;;;;;15.50;12.23;;;;;;;;;;4974731;28;20540;-78
2021/06/23 14:00:48;;;;;;;19.92;14.52;;;;;;;;;;4960979;28;20049;-78
2021/06/23 14:03:14;;;;;;;13.40;11.38;;;;;;;;;;4993385;28;20023;-77
2021/06/23 14:05:40;;;;;;;16.63;12.30;;;;;;;;;;4956783;28;20082;-76
2021/06/23 14:08:08;;;;;;;15.52;12.57;;;;;;;;;;4953541;28;20251;-79
2021/06/23 14:10:35;;;;;;;17.25;12.65;;;;;;;;;;4958485;28;20031;-77
2021/06/23 14:13:01;;;;;;;17.70;12.15;;;;;;;;;;4963367;28;20572;-78
2021/06/23 14:15:26;;;;;;;16.15;12.50;;;;;;;;;;4969550;28;20102;-80
2021/06/23 14:17:59;;;;;;;17.08;12.75;;;;;;;;;;4967012;28;20037;-77
2021/06/23 14:20:26;;;;;;;19.92;12.55;;;;;;;;;;4964967;28;20395;-77
2021/06/23 14:22:51;;;;;;;17.30;12.70;;;;;;;;;;4979816;28;20125;-79
2021/06/23 14:25:17;;;;;;;20.10;13.05;;;;;;;;;;4965822;28;20121;-79
2021/06/23 14:27:44;;;;;;;18.63;12.15;;;;;;;;;;4983483;28;20093;-78
2021/06/23 14:30:12;;;;;;;16.58;13.25;;;;;;;;;;4966871;28;20035;-79
2021/06/23 14:32:42;;;;;;;14.18;12.25;;;;;;;;;;4968031;28;20105;-78
2021/06/23 14:35:10;;;;;;;21.67;13.68;;;;;;;;;;4983754;28;20090;-78
2021/06/23 14:37:36;;;;;;;20.40;12.98;;;;;;;;;;4965138;28;20513;-78
2021/06/23 14:40:07;;;;;;;17.70;13.75;;;;;;;;;;4965949;28;20110;-79